Saint Petersburg, Florida
Current Conditions -  °F | °C
As of 6:53 AM on Friday 31 Oct 2014 (Local Time) from KSPG Reporting Station
Clear Clear  
Wind Chill: 69°   Ceiling: Unl
Heat Index: 69°   Visibility: 10mi
Dew Point: 63°   Wind: 10mph
Humidity: 81%   Direction: 10°N
Pressure: 29.84"   Gusts: NA
Location:  27.77°N, 82.63°W
Report Text: KSPG 311053Z AUTO 01009KT 10SM CLR 21/17 A2984 RMK AO2 SLP105 T02060172
Loading
Personal Weather Stations






























Interactive Weather Map
Tropical Storm Tracking
New forecast layout! Learn more

10-Day Weather Forecast

Advertisements
Track Severe Weather on mobile